createdAt,value
2023-02-15T00:00:24.038Z,23.50
2023-02-15T00:02:52.454Z,23.60
2023-02-15T00:05:20.816Z,23.70
2023-02-15T00:07:49.325Z,23.50
2023-02-15T00:10:17.823Z,23.30
2023-02-15T00:12:46.054Z,23.30
2023-02-15T00:15:14.229Z,23.40
2023-02-15T00:17:42.646Z,23.50
2023-02-15T00:20:11.206Z,23.60
2023-02-15T00:22:39.415Z,23.70
2023-02-15T00:25:07.971Z,23.50
2023-02-15T00:27:36.184Z,23.30
2023-02-15T00:30:04.623Z,23.10
2023-02-15T00:32:35.564Z,23.00
2023-02-15T00:35:03.894Z,22.90
2023-02-15T00:37:32.261Z,22.80
2023-02-15T00:40:00.553Z,22.80
2023-02-15T00:42:28.820Z,22.70
2023-02-15T00:44:57.071Z,22.70
2023-02-15T00:47:25.269Z,22.70
2023-02-15T00:49:53.620Z,22.70
2023-02-15T00:52:21.831Z,22.70
2023-02-15T00:54:50.061Z,22.60
2023-02-15T00:57:18.383Z,22.60
2023-02-15T00:59:49.437Z,22.50
2023-02-15T01:02:17.669Z,22.60
2023-02-15T01:04:48.397Z,22.60
2023-02-15T01:07:17.800Z,22.50
2023-02-15T01:09:46.017Z,22.60
2023-02-15T01:12:14.391Z,22.50
2023-02-15T01:14:42.602Z,22.60
2023-02-15T01:17:11.028Z,22.50
2023-02-15T01:19:39.423Z,22.50
2023-02-15T01:22:11.224Z,22.60
2023-02-15T01:24:39.517Z,22.60
2023-02-15T01:27:07.826Z,22.70
2023-02-15T01:29:36.093Z,22.80
2023-02-15T01:32:04.949Z,23.00
2023-02-15T01:34:33.572Z,23.10
2023-02-15T01:37:02.044Z,23.20
2023-02-15T01:39:30.285Z,23.40
2023-02-15T01:41:58.561Z,23.40
2023-02-15T01:44:49.814Z,23.50
2023-02-15T01:47:45.619Z,23.70
2023-02-15T01:50:16.898Z,23.60
2023-02-15T01:53:32.630Z,23.20
2023-02-15T01:56:08.535Z,23.20
2023-02-15T01:58:38.197Z,23.30
2023-02-15T02:01:09.691Z,23.40
2023-02-15T02:04:08.190Z,23.60
2023-02-15T02:06:38.900Z,23.70
2023-02-15T02:09:11.126Z,23.40
2023-02-15T02:11:41.860Z,23.20
2023-02-15T02:14:14.464Z,23.00
2023-02-15T02:16:55.124Z,22.90
2023-02-15T02:19:34.606Z,22.80
2023-02-15T02:22:24.186Z,22.80
2023-02-15T02:25:20.415Z,22.70
2023-02-15T02:28:19.245Z,22.70
2023-02-15T02:31:24.597Z,22.60
2023-02-15T02:34:20.479Z,22.50
2023-02-15T02:36:52.008Z,22.50
2023-02-15T02:39:59.797Z,22.50
2023-02-15T02:42:46.075Z,22.50
2023-02-15T02:45:37.634Z,22.50
2023-02-15T02:48:15.659Z,22.50
2023-02-15T02:50:43.946Z,22.50
2023-02-15T02:53:12.793Z,22.60
2023-02-15T02:55:58.874Z,22.60
2023-02-15T03:01:41.415Z,22.80
2023-02-15T03:04:23.249Z,23.00
2023-02-15T03:07:10.258Z,23.10
2023-02-15T03:09:41.470Z,23.20
2023-02-15T03:12:25.160Z,23.30
2023-02-15T03:15:17.542Z,23.40
2023-02-15T03:17:52.768Z,23.60
2023-02-15T03:20:27.663Z,23.60
2023-02-15T03:23:08.653Z,23.40
2023-02-15T03:26:04.363Z,23.20
2023-02-15T03:28:45.065Z,23.20
2023-02-15T03:31:16.658Z,23.40
2023-02-15T03:34:00.887Z,23.50
2023-02-15T03:37:14.169Z,23.70
2023-02-15T03:39:51.356Z,23.60
2023-02-15T03:42:27.417Z,23.30
2023-02-15T03:45:12.504Z,23.00
2023-02-15T03:47:47.898Z,22.90
2023-02-15T03:50:20.377Z,22.80
2023-02-15T03:52:48.642Z,22.80
2023-02-15T03:55:17.045Z,22.70
2023-02-15T03:57:45.800Z,22.70
2023-02-15T04:00:25.821Z,22.70
2023-02-15T04:03:40.930Z,22.60
2023-02-15T04:06:09.432Z,22.60
2023-02-15T04:08:37.535Z,22.60
2023-02-15T04:11:05.883Z,22.60
2023-02-15T04:13:34.645Z,22.70
2023-02-15T04:16:03.290Z,22.70
2023-02-15T04:18:35.549Z,22.90
2023-02-15T04:21:03.812Z,23.00
2023-02-15T04:23:32.840Z,23.10
2023-02-15T04:26:04.013Z,23.20
2023-02-15T04:28:32.795Z,23.30
2023-02-15T04:31:01.138Z,23.40
2023-02-15T04:33:29.474Z,23.50
2023-02-15T04:35:57.745Z,23.70
2023-02-15T04:38:25.966Z,23.60
2023-02-15T04:40:54.674Z,23.30
2023-02-15T04:43:22.888Z,23.20
2023-02-15T04:45:51.981Z,23.20
2023-02-15T04:48:20.417Z,23.30
2023-02-15T04:50:48.811Z,23.40
2023-02-15T04:53:17.133Z,23.60
2023-02-15T04:55:45.630Z,23.60
2023-02-15T04:58:13.941Z,23.40
2023-02-15T05:00:42.177Z,23.20
2023-02-15T05:03:10.632Z,23.00
2023-02-15T05:05:39.157Z,22.80
2023-02-15T05:08:07.496Z,22.70
2023-02-15T05:10:35.751Z,22.70
2023-02-15T05:13:04.176Z,22.60
2023-02-15T05:15:32.405Z,22.50
2023-02-15T05:18:00.700Z,22.50
2023-02-15T05:20:29.502Z,22.50
2023-02-15T05:22:57.906Z,22.50
2023-02-15T05:25:26.134Z,22.40
2023-02-15T05:27:54.550Z,22.50
2023-02-15T05:30:22.759Z,22.40
2023-02-15T05:32:51.396Z,22.40
2023-02-15T05:35:19.918Z,22.40
2023-02-15T05:37:48.264Z,22.40
2023-02-15T05:40:16.584Z,22.50
2023-02-15T05:42:44.879Z,22.50
2023-02-15T05:45:13.193Z,22.60
2023-02-15T05:47:41.480Z,22.70
2023-02-15T05:50:10.517Z,22.80
2023-02-15T05:52:39.122Z,23.00
2023-02-15T05:55:07.789Z,23.10
2023-02-15T05:57:36.827Z,23.10
2023-02-15T06:00:06.779Z,23.30
2023-02-15T06:02:43.611Z,23.40
2023-02-15T06:05:11.941Z,23.50
2023-02-15T06:07:40.210Z,23.60
2023-02-15T06:10:09.101Z,23.40
2023-02-15T06:12:37.286Z,23.20
2023-02-15T06:15:06.503Z,23.10
2023-02-15T06:17:34.676Z,23.10
2023-02-15T06:20:02.954Z,23.20
2023-02-15T06:22:31.342Z,23.30
2023-02-15T06:24:59.440Z,23.50
2023-02-15T06:27:27.819Z,23.60
2023-02-15T06:29:56.159Z,23.40
2023-02-15T06:32:24.499Z,23.10
2023-02-15T06:34:52.818Z,22.90
2023-02-15T06:37:21.085Z,22.70
2023-02-15T06:39:49.472Z,22.60
2023-02-15T06:42:17.652Z,22.50
2023-02-15T06:44:46.693Z,22.70
2023-02-15T06:47:15.028Z,22.90
2023-02-15T07:01:41.764Z,23.40
2023-02-15T07:04:37.494Z,23.60
2023-02-15T07:10:29.731Z,23.20
2023-02-15T07:12:58.707Z,22.90
2023-02-15T07:15:27.002Z,23.00
2023-02-15T07:17:59.357Z,23.20
2023-02-15T07:20:30.997Z,23.30
2023-02-15T07:23:25.635Z,23.30
2023-02-15T07:26:02.147Z,23.40
2023-02-15T07:28:30.812Z,23.60
2023-02-15T07:30:59.234Z,23.70
2023-02-15T07:33:27.677Z,23.70
2023-02-15T07:36:01.538Z,23.50
2023-02-15T07:38:44.006Z,23.30
2023-02-15T07:41:17.699Z,23.20
2023-02-15T07:43:47.162Z,23.00
2023-02-15T07:46:17.072Z,22.90
2023-02-15T07:48:49.463Z,22.80
2023-02-15T07:51:18.226Z,22.70
2023-02-15T07:53:46.248Z,22.70
2023-02-15T07:56:16.164Z,22.60
2023-02-15T07:58:44.453Z,22.60
2023-02-15T08:01:13.023Z,22.60
2023-02-15T08:03:41.363Z,22.50
2023-02-15T08:06:09.925Z,22.50
2023-02-15T08:08:38.677Z,22.50
2023-02-15T08:11:18.886Z,22.50
2023-02-15T08:13:48.465Z,22.40
2023-02-15T08:16:16.703Z,22.60
2023-02-15T08:18:45.000Z,22.80
2023-02-15T08:21:13.192Z,23.00
2023-02-15T08:23:41.608Z,23.10
2023-02-15T08:26:09.818Z,23.20
2023-02-15T08:28:39.805Z,23.30
2023-02-15T08:31:13.580Z,23.40
2023-02-15T08:34:23.515Z,23.50
2023-02-15T08:36:51.888Z,23.70
2023-02-15T08:39:21.884Z,23.70
2023-02-15T08:41:50.886Z,23.50
2023-02-15T08:44:20.644Z,23.30
2023-02-15T08:46:50.420Z,23.10
2023-02-15T08:49:23.130Z,22.90
2023-02-15T08:51:51.888Z,22.90
2023-02-15T08:54:21.325Z,22.80
2023-02-15T08:56:50.018Z,22.70
2023-02-15T08:59:19.757Z,22.70
2023-02-15T09:01:49.439Z,22.60
2023-02-15T09:04:20.400Z,22.50
2023-02-15T09:06:52.520Z,22.50
2023-02-15T09:09:21.536Z,22.50
2023-02-15T09:11:58.825Z,22.50
2023-02-15T09:14:28.809Z,22.40
2023-02-15T09:16:57.253Z,22.40
2023-02-15T09:19:26.091Z,22.40
2023-02-15T09:21:56.021Z,22.60
2023-02-15T09:24:24.545Z,22.80
2023-02-15T09:26:52.899Z,23.00
2023-02-15T09:29:21.529Z,23.10
2023-02-15T09:31:51.263Z,23.20
2023-02-15T09:34:22.134Z,23.20
2023-02-15T09:36:53.661Z,23.30
2023-02-15T09:39:24.764Z,23.40
2023-02-15T09:42:17.921Z,23.50
2023-02-15T09:44:53.689Z,23.60
2023-02-15T09:47:43.891Z,23.70
2023-02-15T09:50:49.058Z,23.50
2023-02-15T09:53:47.900Z,23.30
2023-02-15T09:56:31.576Z,23.10
2023-02-15T09:59:16.758Z,23.00
2023-02-15T10:01:56.807Z,22.90
2023-02-15T10:04:36.877Z,22.80
2023-02-15T10:07:11.029Z,22.70
2023-02-15T10:09:45.222Z,22.70
2023-02-15T10:12:24.342Z,22.60
2023-02-15T10:15:29.059Z,22.50
2023-02-15T10:17:57.346Z,22.50
2023-02-15T10:20:53.165Z,22.40
2023-02-15T10:23:43.948Z,22.40
2023-02-15T10:26:20.138Z,22.40
2023-02-15T10:29:06.671Z,22.40
2023-02-15T10:31:52.670Z,22.30
2023-02-15T10:34:22.288Z,22.30
2023-02-15T10:37:13.657Z,22.30
2023-02-15T10:40:19.027Z,22.20
2023-02-15T10:43:05.504Z,22.20
2023-02-15T10:46:02.649Z,22.20
2023-02-15T10:48:52.415Z,22.20
2023-02-15T10:51:40.870Z,22.20
2023-02-15T10:54:19.211Z,22.50
2023-02-15T10:57:24.638Z,22.70
2023-02-15T11:00:04.343Z,22.90
2023-02-15T11:02:59.784Z,23.00
2023-02-15T11:05:52.684Z,23.10
2023-02-15T11:08:21.576Z,23.10
2023-02-15T11:10:52.485Z,23.20
2023-02-15T11:13:24.038Z,23.30
2023-02-15T11:16:22.403Z,23.40
2023-02-15T11:18:53.096Z,23.60
2023-02-15T11:21:42.145Z,23.60
2023-02-15T11:24:19.630Z,23.30
2023-02-15T11:26:51.713Z,23.10
2023-02-15T11:29:43.318Z,22.90
2023-02-15T11:37:28.297Z,23.00
2023-02-15T11:39:56.850Z,23.20
2023-02-15T11:42:27.172Z,23.30
2023-02-15T11:45:09.080Z,23.30
2023-02-15T11:47:37.302Z,23.30
2023-02-15T11:50:05.851Z,23.30
2023-02-15T11:52:33.970Z,23.40
2023-02-15T11:55:02.730Z,23.50
2023-02-15T11:57:40.733Z,23.60
2023-02-15T12:00:19.210Z,23.70
2023-02-15T12:02:51.912Z,23.60
2023-02-15T12:05:23.971Z,23.40
2023-02-15T12:08:11.215Z,23.20
2023-02-15T12:10:57.831Z,23.00
2023-02-15T12:13:26.262Z,22.90
2023-02-15T12:15:59.158Z,22.80
2023-02-15T12:18:39.420Z,22.80
2023-02-15T12:21:38.319Z,22.70
2023-02-15T12:24:20.096Z,22.70
2023-02-15T12:27:03.248Z,22.60
2023-02-15T12:29:57.120Z,22.60
2023-02-15T12:32:31.571Z,22.60
2023-02-15T12:35:15.983Z,22.60
2023-02-15T12:38:14.592Z,22.50
2023-02-15T12:40:43.010Z,22.50
2023-02-15T12:43:29.250Z,22.40
2023-02-15T12:46:23.373Z,22.40
2023-02-15T12:49:31.199Z,22.30
2023-02-15T12:52:05.964Z,22.40
2023-02-15T12:54:41.117Z,22.30
2023-02-15T12:57:17.066Z,22.30
2023-02-15T12:59:56.808Z,22.40
2023-02-15T13:02:42.197Z,22.60
2023-02-15T13:05:31.361Z,22.80
2023-02-15T13:08:24.168Z,23.00
2023-02-15T13:11:04.943Z,23.00
2023-02-15T13:13:36.586Z,23.20
2023-02-15T13:16:11.334Z,23.20
2023-02-15T13:18:48.646Z,23.30
2023-02-15T13:21:29.912Z,23.40
2023-02-15T13:24:07.849Z,23.60
2023-02-15T13:26:37.330Z,23.70
2023-02-15T13:29:16.995Z,23.40
2023-02-15T13:31:47.073Z,23.20
2023-02-15T13:34:39.980Z,23.00
2023-02-15T13:37:34.981Z,22.90
2023-02-15T13:40:30.349Z,22.80
2023-02-15T13:43:21.836Z,22.70
2023-02-15T13:45:59.164Z,22.60
2023-02-15T13:48:53.580Z,22.60
2023-02-15T13:51:37.836Z,22.50
2023-02-15T13:54:12.172Z,22.50
2023-02-15T13:57:18.601Z,22.50
2023-02-15T14:00:03.258Z,22.50
2023-02-15T14:03:02.999Z,22.50
2023-02-15T14:06:01.865Z,22.50
2023-02-15T14:08:44.518Z,22.50
2023-02-15T14:11:40.623Z,22.50
2023-02-15T14:14:27.320Z,22.60
2023-02-15T14:17:07.929Z,22.60
2023-02-15T14:19:47.930Z,22.60
2023-02-15T14:22:31.301Z,22.60
2023-02-15T14:24:59.561Z,22.70
2023-02-15T14:27:50.640Z,22.80
2023-02-15T14:30:32.481Z,23.00
2023-02-15T14:33:26.968Z,23.10
2023-02-15T14:35:56.016Z,23.20
2023-02-15T14:38:44.962Z,23.30
2023-02-15T14:41:46.673Z,23.40
2023-02-15T14:44:34.368Z,23.60
2023-02-15T14:47:18.020Z,23.60
2023-02-15T14:49:47.282Z,23.30
2023-02-15T14:52:15.682Z,23.20
2023-02-15T14:54:43.828Z,23.30
2023-02-15T14:57:12.063Z,23.40
2023-02-15T14:59:52.328Z,23.40
2023-02-15T15:02:49.454Z,23.60
2023-02-15T15:05:35.720Z,23.60
2023-02-15T15:08:06.217Z,23.30
2023-02-15T15:10:36.361Z,23.20
2023-02-15T15:13:46.124Z,23.00
2023-02-15T15:16:37.150Z,23.00
2023-02-15T15:19:11.525Z,22.90
2023-02-15T15:21:51.857Z,22.80
2023-02-15T15:24:38.571Z,22.80
2023-02-15T15:27:45.112Z,22.70
2023-02-15T15:30:16.559Z,22.70
2023-02-15T15:32:58.058Z,22.70
2023-02-15T15:35:49.603Z,22.70
2023-02-15T15:38:36.684Z,22.70
2023-02-15T15:41:19.120Z,22.70
2023-02-15T15:44:05.692Z,22.70
2023-02-15T15:46:50.932Z,22.70
2023-02-15T15:49:25.146Z,22.60
2023-02-15T15:51:54.009Z,22.60
2023-02-15T15:54:28.116Z,22.60
2023-02-15T15:56:59.733Z,22.60
2023-02-15T15:59:32.400Z,22.50
2023-02-15T16:02:09.451Z,22.60
2023-02-15T16:04:37.698Z,22.60
2023-02-15T16:07:18.407Z,22.60
2023-02-15T16:10:02.284Z,22.60
2023-02-15T16:12:34.133Z,22.70
2023-02-15T16:15:24.604Z,22.60
2023-02-15T16:17:59.649Z,22.60
2023-02-15T16:20:37.530Z,22.60
2023-02-15T16:23:25.796Z,22.60
2023-02-15T16:26:38.372Z,22.60
2023-02-15T16:29:17.291Z,22.50
2023-02-15T16:31:58.475Z,22.50
2023-02-15T16:34:26.683Z,22.50
2023-02-15T16:37:13.305Z,22.40
2023-02-15T16:39:45.703Z,22.40
2023-02-15T16:42:16.384Z,22.40
2023-02-15T16:44:51.758Z,22.50
2023-02-15T16:47:27.884Z,22.40
2023-02-15T16:49:59.471Z,22.40
2023-02-15T16:52:29.530Z,22.50
2023-02-15T16:55:03.459Z,22.50
2023-02-15T16:57:38.137Z,22.50
2023-02-15T17:00:18.606Z,22.50
2023-02-15T17:03:01.755Z,22.60
2023-02-15T17:05:45.720Z,22.60
2023-02-15T17:08:18.352Z,22.70
2023-02-15T17:11:11.401Z,22.90
2023-02-15T17:13:40.623Z,23.00
2023-02-15T17:16:28.682Z,23.20
2023-02-15T17:18:57.156Z,23.30
2023-02-15T17:21:29.599Z,23.40
2023-02-15T17:24:05.363Z,23.50
2023-02-15T17:26:36.579Z,23.50
2023-02-15T17:29:20.792Z,23.30
2023-02-15T17:31:52.429Z,23.20
2023-02-15T17:34:48.272Z,23.20
2023-02-15T17:37:39.563Z,23.40
2023-02-15T17:40:16.774Z,23.50
2023-02-15T17:42:45.013Z,23.60
2023-02-15T17:45:15.379Z,23.40
2023-02-15T17:47:44.441Z,23.20
2023-02-15T17:50:25.488Z,23.00
2023-02-15T17:52:55.034Z,22.90
2023-02-15T17:55:25.029Z,22.80
2023-02-15T18:00:17.368Z,22.70
2023-02-15T18:02:46.690Z,23.00
2023-02-15T18:05:16.382Z,23.20
2023-02-15T18:07:45.055Z,23.30
2023-02-15T18:10:21.497Z,23.40
2023-02-15T18:12:49.863Z,23.50
2023-02-15T18:15:18.261Z,23.60
2023-02-15T18:17:47.827Z,23.60
2023-02-15T18:20:19.268Z,23.70
2023-02-15T18:23:01.756Z,23.70
2023-02-15T18:25:30.382Z,23.40
2023-02-15T18:28:01.611Z,23.30
2023-02-15T18:30:30.512Z,23.10
2023-02-15T18:33:03.393Z,23.00
2023-02-15T18:35:33.933Z,22.90
2023-02-15T18:38:02.727Z,22.90
2023-02-15T18:46:26.776Z,23.40
2023-02-15T18:48:55.012Z,23.60
2023-02-15T18:51:24.618Z,23.70
2023-02-15T18:53:54.520Z,23.40
2023-02-15T18:56:23.932Z,23.20
2023-02-15T18:58:52.060Z,23.00
2023-02-15T19:01:22.124Z,22.90
2023-02-15T19:04:01.924Z,22.90
2023-02-15T19:06:33.499Z,22.80
2023-02-15T19:09:07.557Z,22.80
2023-02-15T19:11:36.693Z,22.80
2023-02-15T19:14:27.722Z,22.70
2023-02-15T19:17:00.474Z,22.80
2023-02-15T19:23:36.216Z,23.10
2023-02-15T19:26:05.115Z,23.30
2023-02-15T19:28:35.062Z,23.30
2023-02-15T19:31:03.455Z,23.30
2023-02-15T19:33:32.098Z,23.40
2023-02-15T19:36:00.663Z,23.50
2023-02-15T19:38:33.309Z,23.50
2023-02-15T19:41:30.928Z,23.60
2023-02-15T19:44:01.689Z,23.80
2023-02-15T19:46:34.164Z,23.70
2023-02-15T19:49:07.001Z,23.50
2023-02-15T19:51:37.424Z,23.30
2023-02-15T19:54:16.953Z,23.10
2023-02-15T19:56:45.324Z,23.00
2023-02-15T19:59:36.836Z,22.90
2023-02-15T20:02:05.896Z,22.90
2023-02-15T20:04:34.610Z,22.80
2023-02-15T20:07:03.237Z,22.80
2023-02-15T20:09:34.035Z,22.70
2023-02-15T20:12:02.518Z,22.70
2023-02-15T20:14:30.954Z,22.70
2023-02-15T20:16:59.476Z,22.70
2023-02-15T20:19:27.810Z,22.70
2023-02-15T20:21:57.360Z,22.70
2023-02-15T20:24:29.246Z,22.80
2023-02-15T20:26:57.653Z,22.80
2023-02-15T20:29:26.182Z,22.80
2023-02-15T20:31:55.623Z,22.90
2023-02-15T20:34:24.279Z,23.10
2023-02-15T20:36:52.657Z,23.20
2023-02-15T20:39:23.337Z,23.30
2023-02-15T20:41:54.725Z,23.40
2023-02-15T20:44:29.438Z,23.50
2023-02-15T20:46:59.704Z,23.70
2023-02-15T20:49:36.939Z,23.70
2023-02-15T20:52:20.603Z,23.50
2023-02-15T20:54:51.698Z,23.30
2023-02-15T20:57:20.052Z,23.40
2023-02-15T20:59:48.435Z,23.40
2023-02-15T21:02:20.550Z,23.60
2023-02-15T21:04:49.037Z,23.70
2023-02-15T21:07:21.722Z,23.60
2023-02-15T21:09:52.448Z,23.40
2023-02-15T21:12:21.252Z,23.20
2023-02-15T21:14:50.077Z,23.10
2023-02-15T21:17:18.577Z,22.90
2023-02-15T21:19:47.283Z,22.90
2023-02-15T21:22:18.697Z,22.80
2023-02-15T21:24:58.711Z,22.80
2023-02-15T21:27:31.674Z,22.80
2023-02-15T21:30:19.091Z,22.70
2023-02-15T21:32:59.473Z,22.70
2023-02-15T21:35:32.989Z,22.70
2023-02-15T21:38:08.119Z,22.70
2023-02-15T21:40:36.470Z,22.70
2023-02-15T21:43:13.971Z,22.70
2023-02-15T21:45:42.912Z,22.80
2023-02-15T21:48:13.647Z,22.80
2023-02-15T21:50:42.801Z,22.80
2023-02-15T21:53:15.265Z,22.80
2023-02-15T21:55:43.829Z,22.80
2023-02-15T21:58:33.283Z,22.80
2023-02-15T22:01:02.899Z,22.90
2023-02-15T22:03:37.050Z,23.10
2023-02-15T22:06:06.365Z,23.20
2023-02-15T22:08:34.967Z,23.30
2023-02-15T22:11:03.355Z,23.40
2023-02-15T22:13:32.769Z,23.50
2023-02-15T22:16:00.970Z,23.60
2023-02-15T22:18:34.022Z,23.70
2023-02-15T22:21:03.976Z,23.60
2023-02-15T22:23:32.713Z,23.30
2023-02-15T22:26:05.889Z,23.30
2023-02-15T22:28:39.627Z,23.40
2023-02-15T22:31:14.490Z,23.50
2023-02-15T22:33:43.266Z,23.70
2023-02-15T22:36:30.583Z,23.70
2023-02-15T22:38:59.382Z,23.40
2023-02-15T22:41:31.847Z,23.20
2023-02-15T22:44:00.328Z,23.10
2023-02-15T22:46:28.834Z,23.00
2023-02-15T22:48:57.135Z,22.90
2023-02-15T22:51:26.026Z,22.80
2023-02-15T22:53:54.515Z,22.70
2023-02-15T22:56:33.841Z,22.70
2023-02-15T22:59:05.343Z,22.60
2023-02-15T23:01:36.446Z,22.60
2023-02-15T23:04:05.670Z,22.60
2023-02-15T23:06:35.164Z,22.60
2023-02-15T23:09:03.771Z,22.60
2023-02-15T23:11:32.017Z,22.50
2023-02-15T23:14:00.955Z,22.50
2023-02-15T23:16:31.986Z,22.50
2023-02-15T23:19:13.431Z,22.50
2023-02-15T23:21:44.879Z,22.50
2023-02-15T23:24:27.637Z,22.50
2023-02-15T23:26:56.266Z,22.50
2023-02-15T23:29:28.044Z,22.60
2023-02-15T23:31:56.666Z,22.60
2023-02-15T23:34:29.751Z,22.70
2023-02-15T23:36:58.628Z,22.70
2023-02-15T23:39:28.030Z,22.80
2023-02-15T23:41:56.656Z,22.90
2023-02-15T23:44:25.168Z,23.10
2023-02-15T23:46:53.402Z,23.20
2023-02-15T23:49:22.077Z,23.30
2023-02-15T23:51:53.758Z,23.40
2023-02-15T23:54:24.446Z,23.50
2023-02-15T23:56:59.942Z,23.60
2023-02-15T23:59:31.298Z,23.70
